sensor_id;sensor_type;location;lat;lon;timestamp;P1;durP1;ratioP1;P2;durP2;ratioP2
81801;SDS011;71199;52.490;5.448;2024-02-14T00:00:01;11.90;;;8.00;;
81801;SDS011;71199;52.490;5.448;2024-02-14T00:02:27;10.05;;;7.25;;
81801;SDS011;71199;52.490;5.448;2024-02-14T00:04:53;10.48;;;7.32;;
81801;SDS011;71199;52.490;5.448;2024-02-14T00:07:19;11.18;;;6.80;;
81801;SDS011;71199;52.490;5.448;2024-02-14T00:09:45;9.65;;;6.78;;
81801;SDS011;71199;52.490;5.448;2024-02-14T00:12:10;12.18;;;7.53;;
81801;SDS011;71199;52.490;5.448;2024-02-14T00:14:36;11.48;;;7.72;;
81801;SDS011;71199;52.490;5.448;2024-02-14T00:17:02;12.80;;;7.68;;
81801;SDS011;71199;52.490;5.448;2024-02-14T00:19:28;10.75;;;7.47;;
81801;SDS011;71199;52.490;5.448;2024-02-14T00:21:54;14.40;;;7.35;;
81801;SDS011;71199;52.490;5.448;2024-02-14T00:24:19;11.97;;;7.90;;
81801;SDS011;71199;52.490;5.448;2024-02-14T00:26:45;12.50;;;8.13;;
81801;SDS011;71199;52.490;5.448;2024-02-14T00:29:11;11.68;;;7.68;;
81801;SDS011;71199;52.490;5.448;2024-02-14T00:31:37;12.65;;;8.38;;
81801;SDS011;71199;52.490;5.448;2024-02-14T00:34:02;11.43;;;7.55;;
81801;SDS011;71199;52.490;5.448;2024-02-14T00:36:28;12.57;;;8.23;;
81801;SDS011;71199;52.490;5.448;2024-02-14T00:38:53;10.52;;;7.03;;
81801;SDS011;71199;52.490;5.448;2024-02-14T00:41:18;8.97;;;6.93;;
81801;SDS011;71199;52.490;5.448;2024-02-14T00:43:44;10.35;;;7.10;;
81801;SDS011;71199;52.490;5.448;2024-02-14T00:46:15;10.60;;;6.78;;
81801;SDS011;71199;52.490;5.448;2024-02-14T00:48:41;9.23;;;6.68;;
81801;SDS011;71199;52.490;5.448;2024-02-14T00:51:06;9.67;;;7.10;;
81801;SDS011;71199;52.490;5.448;2024-02-14T00:53:31;9.83;;;6.90;;
81801;SDS011;71199;52.490;5.448;2024-02-14T00:55:57;11.60;;;6.40;;
81801;SDS011;71199;52.490;5.448;2024-02-14T00:58:22;9.37;;;6.50;;
81801;SDS011;71199;52.490;5.448;2024-02-14T01:00:47;9.17;;;6.53;;
81801;SDS011;71199;52.490;5.448;2024-02-14T01:03:13;9.47;;;6.23;;
81801;SDS011;71199;52.490;5.448;2024-02-14T01:05:40;9.82;;;6.55;;
81801;SDS011;71199;52.490;5.448;2024-02-14T01:08:05;10.73;;;7.20;;
81801;SDS011;71199;52.490;5.448;2024-02-14T01:10:32;11.23;;;6.97;;
81801;SDS011;71199;52.490;5.448;2024-02-14T01:12:58;10.77;;;7.03;;
81801;SDS011;71199;52.490;5.448;2024-02-14T01:15:23;10.30;;;6.60;;
81801;SDS011;71199;52.490;5.448;2024-02-14T01:17:48;11.47;;;6.97;;
81801;SDS011;71199;52.490;5.448;2024-02-14T01:20:14;11.80;;;7.60;;
81801;SDS011;71199;52.490;5.448;2024-02-14T01:22:40;11.98;;;7.47;;
81801;SDS011;71199;52.490;5.448;2024-02-14T01:25:05;13.57;;;8.60;;
81801;SDS011;71199;52.490;5.448;2024-02-14T01:27:31;16.75;;;8.02;;
81801;SDS011;71199;52.490;5.448;2024-02-14T01:29:56;11.53;;;8.43;;
81801;SDS011;71199;52.490;5.448;2024-02-14T01:32:22;15.05;;;9.50;;
81801;SDS011;71199;52.490;5.448;2024-02-14T01:34:48;15.07;;;10.07;;
81801;SDS011;71199;52.490;5.448;2024-02-14T01:37:13;14.43;;;9.43;;
81801;SDS011;71199;52.490;5.448;2024-02-14T01:39:39;16.83;;;10.52;;
81801;SDS011;71199;52.490;5.448;2024-02-14T01:42:04;15.85;;;10.35;;
81801;SDS011;71199;52.490;5.448;2024-02-14T01:46:57;16.25;;;9.82;;
81801;SDS011;71199;52.490;5.448;2024-02-14T01:49:23;17.63;;;10.52;;
81801;SDS011;71199;52.490;5.448;2024-02-14T01:51:49;17.90;;;10.60;;
81801;SDS011;71199;52.490;5.448;2024-02-14T01:54:14;18.13;;;11.38;;
81801;SDS011;71199;52.490;5.448;2024-02-14T01:56:42;18.33;;;11.07;;
81801;SDS011;71199;52.490;5.448;2024-02-14T01:59:09;15.98;;;9.90;;
81801;SDS011;71199;52.490;5.448;2024-02-14T02:01:35;15.75;;;10.07;;
81801;SDS011;71199;52.490;5.448;2024-02-14T02:04:00;17.20;;;9.95;;
81801;SDS011;71199;52.490;5.448;2024-02-14T02:06:26;16.13;;;9.52;;
81801;SDS011;71199;52.490;5.448;2024-02-14T02:08:52;14.57;;;9.50;;
81801;SDS011;71199;52.490;5.448;2024-02-14T02:11:18;15.67;;;9.50;;
81801;SDS011;71199;52.490;5.448;2024-02-14T02:13:44;15.15;;;9.65;;
81801;SDS011;71199;52.490;5.448;2024-02-14T02:16:09;14.90;;;9.68;;
81801;SDS011;71199;52.490;5.448;2024-02-14T02:18:34;16.75;;;11.40;;
81801;SDS011;71199;52.490;5.448;2024-02-14T02:21:00;19.02;;;10.98;;
81801;SDS011;71199;52.490;5.448;2024-02-14T02:23:29;17.25;;;10.43;;
81801;SDS011;71199;52.490;5.448;2024-02-14T02:25:55;18.73;;;11.50;;
81801;SDS011;71199;52.490;5.448;2024-02-14T02:28:20;17.67;;;11.57;;
81801;SDS011;71199;52.490;5.448;2024-02-14T02:30:45;17.30;;;10.95;;
81801;SDS011;71199;52.490;5.448;2024-02-14T02:33:11;19.33;;;11.13;;
81801;SDS011;71199;52.490;5.448;2024-02-14T02:35:39;17.58;;;10.75;;
81801;SDS011;71199;52.490;5.448;2024-02-14T02:38:07;21.75;;;11.70;;
81801;SDS011;71199;52.490;5.448;2024-02-14T02:40:32;18.33;;;11.05;;
81801;SDS011;71199;52.490;5.448;2024-02-14T02:42:58;18.85;;;11.52;;
81801;SDS011;71199;52.490;5.448;2024-02-14T02:45:24;18.05;;;11.55;;
81801;SDS011;71199;52.490;5.448;2024-02-14T02:47:49;16.75;;;11.40;;
81801;SDS011;71199;52.490;5.448;2024-02-14T02:50:16;20.65;;;12.50;;
81801;SDS011;71199;52.490;5.448;2024-02-14T02:52:42;19.30;;;11.93;;
81801;SDS011;71199;52.490;5.448;2024-02-14T02:55:08;20.45;;;11.60;;
81801;SDS011;71199;52.490;5.448;2024-02-14T02:57:33;19.85;;;12.68;;
81801;SDS011;71199;52.490;5.448;2024-02-14T03:00:01;19.38;;;12.25;;
81801;SDS011;71199;52.490;5.448;2024-02-14T03:02:30;16.65;;;11.00;;
81801;SDS011;71199;52.490;5.448;2024-02-14T03:04:56;19.05;;;11.77;;
81801;SDS011;71199;52.490;5.448;2024-02-14T03:07:21;20.15;;;11.88;;
81801;SDS011;71199;52.490;5.448;2024-02-14T03:09:48;17.08;;;10.93;;
81801;SDS011;71199;52.490;5.448;2024-02-14T03:12:14;17.42;;;10.98;;
81801;SDS011;71199;52.490;5.448;2024-02-14T03:14:41;15.98;;;10.52;;
81801;SDS011;71199;52.490;5.448;2024-02-14T03:17:08;16.38;;;10.40;;
81801;SDS011;71199;52.490;5.448;2024-02-14T03:19:35;14.95;;;9.30;;
81801;SDS011;71199;52.490;5.448;2024-02-14T03:22:03;13.68;;;9.20;;
81801;SDS011;71199;52.490;5.448;2024-02-14T03:24:30;15.52;;;9.27;;
81801;SDS011;71199;52.490;5.448;2024-02-14T03:26:56;13.25;;;8.98;;
81801;SDS011;71199;52.490;5.448;2024-02-14T03:29:22;13.43;;;9.10;;
81801;SDS011;71199;52.490;5.448;2024-02-14T03:31:47;14.32;;;8.30;;
81801;SDS011;71199;52.490;5.448;2024-02-14T03:34:13;15.32;;;8.82;;
81801;SDS011;71199;52.490;5.448;2024-02-14T03:36:39;14.23;;;8.30;;
81801;SDS011;71199;52.490;5.448;2024-02-14T03:39:04;10.33;;;7.43;;
81801;SDS011;71199;52.490;5.448;2024-02-14T03:41:31;12.30;;;7.38;;
81801;SDS011;71199;52.490;5.448;2024-02-14T03:43:57;10.65;;;7.00;;
81801;SDS011;71199;52.490;5.448;2024-02-14T03:46:27;10.82;;;7.22;;
81801;SDS011;71199;52.490;5.448;2024-02-14T03:48:53;10.93;;;7.13;;
81801;SDS011;71199;52.490;5.448;2024-02-14T03:51:19;10.25;;;6.85;;
81801;SDS011;71199;52.490;5.448;2024-02-14T03:53:44;12.55;;;6.80;;
81801;SDS011;71199;52.490;5.448;2024-02-14T03:56:10;11.25;;;7.32;;
81801;SDS011;71199;52.490;5.448;2024-02-14T03:58:37;12.35;;;8.20;;
81801;SDS011;71199;52.490;5.448;2024-02-14T04:01:03;11.00;;;7.38;;
81801;SDS011;71199;52.490;5.448;2024-02-14T04:03:29;11.07;;;7.78;;
81801;SDS011;71199;52.490;5.448;2024-02-14T04:05:54;10.33;;;7.70;;
81801;SDS011;71199;52.490;5.448;2024-02-14T04:08:20;13.20;;;7.80;;
81801;SDS011;71199;52.490;5.448;2024-02-14T04:10:46;12.82;;;8.27;;
81801;SDS011;71199;52.490;5.448;2024-02-14T04:13:14;12.75;;;8.02;;
81801;SDS011;71199;52.490;5.448;2024-02-14T04:15:40;13.13;;;8.43;;
81801;SDS011;71199;52.490;5.448;2024-02-14T04:18:07;13.00;;;8.73;;
81801;SDS011;71199;52.490;5.448;2024-02-14T04:20:33;15.13;;;8.95;;
81801;SDS011;71199;52.490;5.448;2024-02-14T04:22:59;15.57;;;9.50;;
81801;SDS011;71199;52.490;5.448;2024-02-14T04:25:24;19.23;;;9.95;;
81801;SDS011;71199;52.490;5.448;2024-02-14T04:27:50;18.03;;;10.20;;
81801;SDS011;71199;52.490;5.448;2024-02-14T04:30:15;18.73;;;10.90;;
81801;SDS011;71199;52.490;5.448;2024-02-14T04:32:40;18.85;;;11.13;;
81801;SDS011;71199;52.490;5.448;2024-02-14T04:35:08;24.33;;;10.48;;
81801;SDS011;71199;52.490;5.448;2024-02-14T04:37:34;24.50;;;10.82;;
81801;SDS011;71199;52.490;5.448;2024-02-14T04:39:59;25.48;;;11.02;;
81801;SDS011;71199;52.490;5.448;2024-02-14T04:42:25;24.43;;;10.00;;
81801;SDS011;71199;52.490;5.448;2024-02-14T04:44:50;26.58;;;10.52;;
81801;SDS011;71199;52.490;5.448;2024-02-14T04:47:15;33.13;;;12.17;;
81801;SDS011;71199;52.490;5.448;2024-02-14T04:49:41;24.07;;;10.23;;
81801;SDS011;71199;52.490;5.448;2024-02-14T04:52:06;26.95;;;9.25;;
81801;SDS011;71199;52.490;5.448;2024-02-14T04:54:33;26.45;;;9.93;;
81801;SDS011;71199;52.490;5.448;2024-02-14T04:56:58;21.60;;;8.57;;
81801;SDS011;71199;52.490;5.448;2024-02-14T04:59:24;28.00;;;8.70;;
81801;SDS011;71199;52.490;5.448;2024-02-14T05:01:49;32.07;;;8.17;;
81801;SDS011;71199;52.490;5.448;2024-02-14T05:04:16;29.88;;;8.05;;
81801;SDS011;71199;52.490;5.448;2024-02-14T05:06:42;22.40;;;7.20;;
81801;SDS011;71199;52.490;5.448;2024-02-14T05:09:07;30.92;;;7.90;;
81801;SDS011;71199;52.490;5.448;2024-02-14T05:11:35;26.42;;;6.55;;
81801;SDS011;71199;52.490;5.448;2024-02-14T05:14:01;24.98;;;6.88;;
81801;SDS011;71199;52.490;5.448;2024-02-14T05:16:27;25.02;;;6.80;;
81801;SDS011;71199;52.490;5.448;2024-02-14T05:18:52;37.13;;;7.32;;
81801;SDS011;71199;52.490;5.448;2024-02-14T05:21:19;23.88;;;6.93;;
81801;SDS011;71199;52.490;5.448;2024-02-14T05:23:46;31.95;;;6.75;;
81801;SDS011;71199;52.490;5.448;2024-02-14T05:26:12;36.25;;;8.07;;
81801;SDS011;71199;52.490;5.448;2024-02-14T05:28:37;28.60;;;7.85;;
81801;SDS011;71199;52.490;5.448;2024-02-14T05:31:02;31.20;;;7.17;;
81801;SDS011;71199;52.490;5.448;2024-02-14T05:33:28;38.08;;;8.25;;
81801;SDS011;71199;52.490;5.448;2024-02-14T05:35:53;34.15;;;6.97;;
81801;SDS011;71199;52.490;5.448;2024-02-14T05:38:19;27.05;;;6.90;;
81801;SDS011;71199;52.490;5.448;2024-02-14T05:40:45;30.13;;;7.53;;
81801;SDS011;71199;52.490;5.448;2024-02-14T05:43:11;42.28;;;8.20;;
81801;SDS011;71199;52.490;5.448;2024-02-14T05:45:36;22.00;;;6.93;;
81801;SDS011;71199;52.490;5.448;2024-02-14T05:48:01;31.33;;;7.22;;
81801;SDS011;71199;52.490;5.448;2024-02-14T05:50:27;39.30;;;7.95;;
81801;SDS011;71199;52.490;5.448;2024-02-14T05:52:53;27.80;;;7.22;;
81801;SDS011;71199;52.490;5.448;2024-02-14T05:55:18;25.25;;;6.43;;
81801;SDS011;71199;52.490;5.448;2024-02-14T05:57:44;33.05;;;8.10;;
81801;SDS011;71199;52.490;5.448;2024-02-14T06:00:09;34.00;;;8.43;;
81801;SDS011;71199;52.490;5.448;2024-02-14T06:02:35;40.88;;;9.05;;
81801;SDS011;71199;52.490;5.448;2024-02-14T06:05:01;22.30;;;7.35;;
81801;SDS011;71199;52.490;5.448;2024-02-14T06:07:26;32.60;;;8.40;;
81801;SDS011;71199;52.490;5.448;2024-02-14T06:09:53;34.95;;;8.70;;
81801;SDS011;71199;52.490;5.448;2024-02-14T06:12:18;33.15;;;9.15;;
81801;SDS011;71199;52.490;5.448;2024-02-14T06:14:44;26.13;;;7.55;;
81801;SDS011;71199;52.490;5.448;2024-02-14T06:17:12;26.33;;;7.22;;
81801;SDS011;71199;52.490;5.448;2024-02-14T06:19:38;29.80;;;7.67;;
81801;SDS011;71199;52.490;5.448;2024-02-14T06:22:04;36.97;;;10.10;;
81801;SDS011;71199;52.490;5.448;2024-02-14T06:24:29;30.25;;;8.30;;
81801;SDS011;71199;52.490;5.448;2024-02-14T06:26:54;29.08;;;8.75;;
81801;SDS011;71199;52.490;5.448;2024-02-14T06:29:20;25.13;;;7.50;;
81801;SDS011;71199;52.490;5.448;2024-02-14T06:31:46;31.60;;;9.05;;
81801;SDS011;71199;52.490;5.448;2024-02-14T06:34:12;33.50;;;8.82;;
81801;SDS011;71199;52.490;5.448;2024-02-14T06:36:37;38.50;;;9.00;;
81801;SDS011;71199;52.490;5.448;2024-02-14T06:39:03;32.30;;;8.30;;
81801;SDS011;71199;52.490;5.448;2024-02-14T06:41:29;30.90;;;10.45;;
81801;SDS011;71199;52.490;5.448;2024-02-14T06:43:54;32.17;;;8.53;;
81801;SDS011;71199;52.490;5.448;2024-02-14T06:46:20;24.05;;;8.65;;
81801;SDS011;71199;52.490;5.448;2024-02-14T06:48:45;26.40;;;7.67;;
81801;SDS011;71199;52.490;5.448;2024-02-14T06:51:10;29.57;;;6.97;;
81801;SDS011;71199;52.490;5.448;2024-02-14T06:53:36;27.37;;;7.87;;
81801;SDS011;71199;52.490;5.448;2024-02-14T06:56:01;27.00;;;7.82;;
81801;SDS011;71199;52.490;5.448;2024-02-14T06:58:27;23.48;;;7.53;;
81801;SDS011;71199;52.490;5.448;2024-02-14T07:00:52;21.83;;;7.37;;
81801;SDS011;71199;52.490;5.448;2024-02-14T07:03:17;29.38;;;8.25;;
81801;SDS011;71199;52.490;5.448;2024-02-14T07:05:43;28.90;;;9.07;;
81801;SDS011;71199;52.490;5.448;2024-02-14T07:08:08;20.45;;;6.63;;
81801;SDS011;71199;52.490;5.448;2024-02-14T07:10:34;24.27;;;7.45;;
81801;SDS011;71199;52.490;5.448;2024-02-14T07:12:59;21.00;;;7.47;;
81801;SDS011;71199;52.490;5.448;2024-02-14T07:15:24;26.83;;;8.07;;
81801;SDS011;71199;52.490;5.448;2024-02-14T07:17:53;22.08;;;7.93;;
81801;SDS011;71199;52.490;5.448;2024-02-14T07:20:20;26.90;;;8.45;;
81801;SDS011;71199;52.490;5.448;2024-02-14T07:22:45;19.02;;;8.13;;
81801;SDS011;71199;52.490;5.448;2024-02-14T07:25:12;24.02;;;8.20;;
81801;SDS011;71199;52.490;5.448;2024-02-14T07:27:39;29.35;;;8.45;;
81801;SDS011;71199;52.490;5.448;2024-02-14T07:30:05;21.35;;;8.40;;
81801;SDS011;71199;52.490;5.448;2024-02-14T07:32:30;26.52;;;9.65;;
81801;SDS011;71199;52.490;5.448;2024-02-14T07:34:56;23.00;;;9.25;;
81801;SDS011;71199;52.490;5.448;2024-02-14T07:37:21;25.13;;;9.85;;
81801;SDS011;71199;52.490;5.448;2024-02-14T07:39:47;21.17;;;9.68;;
81801;SDS011;71199;52.490;5.448;2024-02-14T07:42:13;28.23;;;12.50;;
81801;SDS011;71199;52.490;5.448;2024-02-14T07:44:38;29.73;;;10.63;;
81801;SDS011;71199;52.490;5.448;2024-02-14T07:47:04;35.07;;;12.10;;
81801;SDS011;71199;52.490;5.448;2024-02-14T07:49:29;26.80;;;11.85;;
81801;SDS011;71199;52.490;5.448;2024-02-14T07:51:55;33.03;;;12.40;;
81801;SDS011;71199;52.490;5.448;2024-02-14T07:54:21;35.58;;;12.85;;
81801;SDS011;71199;52.490;5.448;2024-02-14T07:56:46;30.35;;;12.90;;
81801;SDS011;71199;52.490;5.448;2024-02-14T07:59:11;32.38;;;13.77;;
81801;SDS011;71199;52.490;5.448;2024-02-14T08:01:37;31.25;;;13.63;;
81801;SDS011;71199;52.490;5.448;2024-02-14T08:04:02;26.90;;;11.50;;
81801;SDS011;71199;52.490;5.448;2024-02-14T08:06:29;36.50;;;12.90;;
81801;SDS011;71199;52.490;5.448;2024-02-14T08:08:54;25.85;;;12.27;;
81801;SDS011;71199;52.490;5.448;2024-02-14T08:11:24;33.65;;;12.40;;
81801;SDS011;71199;52.490;5.448;2024-02-14T08:13:50;29.58;;;12.70;;
81801;SDS011;71199;52.490;5.448;2024-02-14T08:16:16;32.88;;;12.00;;
81801;SDS011;71199;52.490;5.448;2024-02-14T08:18:41;23.33;;;11.57;;
81801;SDS011;71199;52.490;5.448;2024-02-14T08:21:09;27.67;;;12.70;;
81801;SDS011;71199;52.490;5.448;2024-02-14T08:23:35;34.88;;;13.07;;
81801;SDS011;71199;52.490;5.448;2024-02-14T08:26:01;25.42;;;12.43;;
81801;SDS011;71199;52.490;5.448;2024-02-14T08:28:26;32.72;;;13.60;;
81801;SDS011;71199;52.490;5.448;2024-02-14T08:30:51;33.30;;;12.37;;
81801;SDS011;71199;52.490;5.448;2024-02-14T08:33:17;28.37;;;13.23;;
81801;SDS011;71199;52.490;5.448;2024-02-14T08:35:42;33.83;;;14.90;;
81801;SDS011;71199;52.490;5.448;2024-02-14T08:38:08;30.85;;;14.13;;
81801;SDS011;71199;52.490;5.448;2024-02-14T08:40:33;32.35;;;14.48;;
81801;SDS011;71199;52.490;5.448;2024-02-14T08:42:59;33.85;;;15.25;;
81801;SDS011;71199;52.490;5.448;2024-02-14T08:45:24;30.52;;;14.52;;
81801;SDS011;71199;52.490;5.448;2024-02-14T08:47:50;30.42;;;16.17;;
81801;SDS011;71199;52.490;5.448;2024-02-14T08:50:16;37.15;;;17.73;;
81801;SDS011;71199;52.490;5.448;2024-02-14T08:52:42;41.88;;;18.70;;
81801;SDS011;71199;52.490;5.448;2024-02-14T08:55:07;36.33;;;18.73;;
81801;SDS011;71199;52.490;5.448;2024-02-14T08:57:39;35.97;;;18.80;;
81801;SDS011;71199;52.490;5.448;2024-02-14T09:00:06;40.13;;;18.88;;
81801;SDS011;71199;52.490;5.448;2024-02-14T09:02:32;35.83;;;17.95;;
81801;SDS011;71199;52.490;5.448;2024-02-14T09:07:26;30.02;;;16.85;;
81801;SDS011;71199;52.490;5.448;2024-02-14T09:09:51;31.85;;;16.27;;
81801;SDS011;71199;52.490;5.448;2024-02-14T09:12:17;34.07;;;17.47;;
81801;SDS011;71199;52.490;5.448;2024-02-14T09:14:42;32.42;;;16.70;;
81801;SDS011;71199;52.490;5.448;2024-02-14T09:17:08;36.80;;;17.92;;
81801;SDS011;71199;52.490;5.448;2024-02-14T09:19:33;35.35;;;17.58;;
81801;SDS011;71199;52.490;5.448;2024-02-14T09:21:58;33.83;;;17.57;;
81801;SDS011;71199;52.490;5.448;2024-02-14T09:24:24;32.37;;;16.73;;
81801;SDS011;71199;52.490;5.448;2024-02-14T09:26:50;33.53;;;16.95;;
81801;SDS011;71199;52.490;5.448;2024-02-14T09:29:15;31.33;;;16.83;;
81801;SDS011;71199;52.490;5.448;2024-02-14T09:31:40;33.35;;;17.83;;
81801;SDS011;71199;52.490;5.448;2024-02-14T09:34:06;37.80;;;17.93;;
81801;SDS011;71199;52.490;5.448;2024-02-14T09:36:31;32.97;;;17.83;;
81801;SDS011;71199;52.490;5.448;2024-02-14T09:38:57;30.92;;;16.35;;
81801;SDS011;71199;52.490;5.448;2024-02-14T09:41:41;30.65;;;16.48;;
81801;SDS011;71199;52.490;5.448;2024-02-14T09:44:08;27.27;;;14.98;;
81801;SDS011;71199;52.490;5.448;2024-02-14T09:46:35;25.73;;;14.57;;
81801;SDS011;71199;52.490;5.448;2024-02-14T09:49:01;26.77;;;15.25;;
81801;SDS011;71199;52.490;5.448;2024-02-14T09:51:29;24.40;;;13.25;;
81801;SDS011;71199;52.490;5.448;2024-02-14T09:53:54;22.23;;;13.00;;
81801;SDS011;71199;52.490;5.448;2024-02-14T09:56:21;21.45;;;11.93;;
81801;SDS011;71199;52.490;5.448;2024-02-14T09:58:48;17.73;;;10.98;;
81801;SDS011;71199;52.490;5.448;2024-02-14T10:01:20;16.67;;;10.13;;
81801;SDS011;71199;52.490;5.448;2024-02-14T10:03:49;15.63;;;9.25;;
81801;SDS011;71199;52.490;5.448;2024-02-14T10:06:15;12.93;;;8.30;;
81801;SDS011;71199;52.490;5.448;2024-02-14T10:08:41;14.73;;;9.48;;
81801;SDS011;71199;52.490;5.448;2024-02-14T10:11:06;16.10;;;10.57;;
81801;SDS011;71199;52.490;5.448;2024-02-14T10:13:33;14.95;;;9.23;;
81801;SDS011;71199;52.490;5.448;2024-02-14T10:16:00;14.55;;;9.32;;
81801;SDS011;71199;52.490;5.448;2024-02-14T10:18:25;16.60;;;10.20;;
81801;SDS011;71199;52.490;5.448;2024-02-14T10:20:57;14.55;;;9.43;;
81801;SDS011;71199;52.490;5.448;2024-02-14T10:23:23;13.70;;;8.63;;
81801;SDS011;71199;52.490;5.448;2024-02-14T10:25:49;16.63;;;9.20;;
81801;SDS011;71199;52.490;5.448;2024-02-14T10:30:44;11.52;;;7.90;;
81801;SDS011;71199;52.490;5.448;2024-02-14T10:33:11;12.82;;;7.88;;
81801;SDS011;71199;52.490;5.448;2024-02-14T10:35:36;9.80;;;6.60;;
81801;SDS011;71199;52.490;5.448;2024-02-14T10:38:06;10.20;;;7.22;;
81801;SDS011;71199;52.490;5.448;2024-02-14T10:40:34;9.30;;;6.85;;
81801;SDS011;71199;52.490;5.448;2024-02-14T10:43:01;11.02;;;6.88;;
81801;SDS011;71199;52.490;5.448;2024-02-14T10:45:27;12.27;;;7.57;;
81801;SDS011;71199;52.490;5.448;2024-02-14T10:47:55;12.83;;;7.70;;
81801;SDS011;71199;52.490;5.448;2024-02-14T10:50:24;14.25;;;7.22;;
81801;SDS011;71199;52.490;5.448;2024-02-14T10:52:53;12.50;;;8.55;;
81801;SDS011;71199;52.490;5.448;2024-02-14T10:55:24;15.98;;;10.10;;
81801;SDS011;71199;52.490;5.448;2024-02-14T10:57:52;15.90;;;9.80;;
81801;SDS011;71199;52.490;5.448;2024-02-14T11:00:19;15.10;;;10.50;;
81801;SDS011;71199;52.490;5.448;2024-02-14T11:02:45;18.17;;;10.90;;
81801;SDS011;71199;52.490;5.448;2024-02-14T11:05:14;17.92;;;11.90;;
81801;SDS011;71199;52.490;5.448;2024-02-14T11:07:46;19.02;;;11.75;;
81801;SDS011;71199;52.490;5.448;2024-02-14T11:10:15;17.70;;;11.63;;
81801;SDS011;71199;52.490;5.448;2024-02-14T11:12:41;18.48;;;11.80;;
81801;SDS011;71199;52.490;5.448;2024-02-14T11:15:17;24.08;;;12.20;;
81801;SDS011;71199;52.490;5.448;2024-02-14T11:17:45;19.13;;;11.38;;
81801;SDS011;71199;52.490;5.448;2024-02-14T11:20:18;18.55;;;12.50;;
81801;SDS011;71199;52.490;5.448;2024-02-14T11:22:54;19.30;;;11.18;;
81801;SDS011;71199;52.490;5.448;2024-02-14T11:25:22;18.33;;;12.30;;
81801;SDS011;71199;52.490;5.448;2024-02-14T11:27:49;20.08;;;11.88;;
81801;SDS011;71199;52.490;5.448;2024-02-14T11:30:15;18.15;;;11.18;;
81801;SDS011;71199;52.490;5.448;2024-02-14T11:32:52;19.30;;;11.50;;
81801;SDS011;71199;52.490;5.448;2024-02-14T11:35:17;17.02;;;11.55;;
81801;SDS011;71199;52.490;5.448;2024-02-14T11:37:44;16.63;;;11.15;;
81801;SDS011;71199;52.490;5.448;2024-02-14T11:40:18;16.52;;;11.30;;
81801;SDS011;71199;52.490;5.448;2024-02-14T11:42:45;19.60;;;10.93;;
81801;SDS011;71199;52.490;5.448;2024-02-14T11:45:12;15.60;;;9.43;;
81801;SDS011;71199;52.490;5.448;2024-02-14T11:47:38;17.92;;;9.98;;
81801;SDS011;71199;52.490;5.448;2024-02-14T11:50:04;16.25;;;10.48;;
81801;SDS011;71199;52.490;5.448;2024-02-14T11:52:30;17.58;;;10.32;;
81801;SDS011;71199;52.490;5.448;2024-02-14T11:54:55;13.57;;;8.88;;
81801;SDS011;71199;52.490;5.448;2024-02-14T11:57:22;12.38;;;8.35;;
81801;SDS011;71199;52.490;5.448;2024-02-14T11:59:51;10.13;;;6.97;;
81801;SDS011;71199;52.490;5.448;2024-02-14T12:02:18;12.52;;;7.20;;
81801;SDS011;71199;52.490;5.448;2024-02-14T12:04:45;9.85;;;6.43;;
81801;SDS011;71199;52.490;5.448;2024-02-14T12:07:12;10.02;;;6.85;;
81801;SDS011;71199;52.490;5.448;2024-02-14T12:09:38;8.93;;;5.85;;
81801;SDS011;71199;52.490;5.448;2024-02-14T12:12:04;8.10;;;5.43;;
81801;SDS011;71199;52.490;5.448;2024-02-14T12:14:29;8.80;;;5.13;;
81801;SDS011;71199;52.490;5.448;2024-02-14T12:17:00;7.22;;;4.88;;
81801;SDS011;71199;52.490;5.448;2024-02-14T12:19:27;8.35;;;4.85;;
81801;SDS011;71199;52.490;5.448;2024-02-14T12:21:53;9.88;;;5.50;;
81801;SDS011;71199;52.490;5.448;2024-02-14T12:24:24;7.80;;;5.28;;
81801;SDS011;71199;52.490;5.448;2024-02-14T12:26:53;7.65;;;5.50;;
81801;SDS011;71199;52.490;5.448;2024-02-14T12:29:19;8.02;;;5.22;;
81801;SDS011;71199;52.490;5.448;2024-02-14T12:31:44;8.03;;;5.70;;
81801;SDS011;71199;52.490;5.448;2024-02-14T12:34:10;9.50;;;6.80;;
81801;SDS011;71199;52.490;5.448;2024-02-14T12:36:36;8.85;;;5.55;;
81801;SDS011;71199;52.490;5.448;2024-02-14T12:39:02;8.05;;;5.63;;
81801;SDS011;71199;52.490;5.448;2024-02-14T12:41:28;6.55;;;5.13;;
81801;SDS011;71199;52.490;5.448;2024-02-14T12:43:58;6.30;;;4.45;;
81801;SDS011;71199;52.490;5.448;2024-02-14T12:46:25;8.95;;;4.78;;
81801;SDS011;71199;52.490;5.448;2024-02-14T12:48:50;8.43;;;4.88;;
81801;SDS011;71199;52.490;5.448;2024-02-14T12:51:16;6.30;;;4.63;;
81801;SDS011;71199;52.490;5.448;2024-02-14T12:53:41;6.47;;;4.50;;
81801;SDS011;71199;52.490;5.448;2024-02-14T12:56:07;6.47;;;4.47;;
81801;SDS011;71199;52.490;5.448;2024-02-14T12:58:33;5.63;;;4.25;;
81801;SDS011;71199;52.490;5.448;2024-02-14T13:00:58;6.35;;;4.93;;
81801;SDS011;71199;52.490;5.448;2024-02-14T13:03:24;8.15;;;4.82;;
81801;SDS011;71199;52.490;5.448;2024-02-14T13:05:50;7.18;;;5.30;;
81801;SDS011;71199;52.490;5.448;2024-02-14T13:08:18;7.40;;;5.22;;
81801;SDS011;71199;52.490;5.448;2024-02-14T13:10:44;10.02;;;5.85;;
81801;SDS011;71199;52.490;5.448;2024-02-14T13:13:09;8.15;;;5.78;;
81801;SDS011;71199;52.490;5.448;2024-02-14T13:15:35;6.78;;;5.15;;
81801;SDS011;71199;52.490;5.448;2024-02-14T13:18:01;9.20;;;6.03;;
81801;SDS011;71199;52.490;5.448;2024-02-14T13:20:27;7.82;;;5.47;;
81801;SDS011;71199;52.490;5.448;2024-02-14T13:22:53;11.05;;;5.78;;
81801;SDS011;71199;52.490;5.448;2024-02-14T13:25:19;8.05;;;5.75;;
81801;SDS011;71199;52.490;5.448;2024-02-14T13:27:44;10.73;;;6.13;;
81801;SDS011;71199;52.490;5.448;2024-02-14T13:30:10;7.32;;;5.43;;
81801;SDS011;71199;52.490;5.448;2024-02-14T13:32:36;10.02;;;5.57;;
81801;SDS011;71199;52.490;5.448;2024-02-14T13:35:02;8.60;;;5.82;;
81801;SDS011;71199;52.490;5.448;2024-02-14T13:37:28;7.05;;;5.03;;
81801;SDS011;71199;52.490;5.448;2024-02-14T13:39:54;8.13;;;4.95;;
81801;SDS011;71199;52.490;5.448;2024-02-14T13:42:20;6.10;;;4.82;;
81801;SDS011;71199;52.490;5.448;2024-02-14T13:44:45;6.03;;;4.90;;
81801;SDS011;71199;52.490;5.448;2024-02-14T13:47:10;5.75;;;4.00;;
81801;SDS011;71199;52.490;5.448;2024-02-14T13:49:36;6.68;;;4.00;;
81801;SDS011;71199;52.490;5.448;2024-02-14T13:52:01;4.78;;;3.75;;
81801;SDS011;71199;52.490;5.448;2024-02-14T13:54:27;4.83;;;3.40;;
81801;SDS011;71199;52.490;5.448;2024-02-14T13:56:52;5.00;;;3.83;;
81801;SDS011;71199;52.490;5.448;2024-02-14T13:59:17;4.82;;;2.88;;
81801;SDS011;71199;52.490;5.448;2024-02-14T14:01:44;4.57;;;3.40;;
81801;SDS011;71199;52.490;5.448;2024-02-14T14:04:11;5.07;;;3.30;;
81801;SDS011;71199;52.490;5.448;2024-02-14T14:06:37;4.72;;;2.90;;
81801;SDS011;71199;52.490;5.448;2024-02-14T14:09:04;3.50;;;2.80;;
81801;SDS011;71199;52.490;5.448;2024-02-14T14:11:32;4.03;;;2.78;;
81801;SDS011;71199;52.490;5.448;2024-02-14T14:13:58;4.22;;;2.45;;
81801;SDS011;71199;52.490;5.448;2024-02-14T14:16:23;4.03;;;2.67;;
81801;SDS011;71199;52.490;5.448;2024-02-14T14:18:48;4.03;;;2.83;;
81801;SDS011;71199;52.490;5.448;2024-02-14T14:21:15;3.50;;;2.40;;
81801;SDS011;71199;52.490;5.448;2024-02-14T14:23:40;4.05;;;2.83;;
81801;SDS011;71199;52.490;5.448;2024-02-14T14:26:06;3.58;;;2.63;;
81801;SDS011;71199;52.490;5.448;2024-02-14T14:28:31;3.88;;;2.53;;
81801;SDS011;71199;52.490;5.448;2024-02-14T14:30:57;3.72;;;2.88;;
81801;SDS011;71199;52.490;5.448;2024-02-14T14:33:22;3.92;;;3.03;;